Shelbyville, Texas
Current Conditions -  °F | °C
As of 12:55 PM on Monday 20 Oct 2014 (Local Time) from KOCH Reporting Station
Clear Clear  
Wind Chill: 75°   Ceiling: Unl
Heat Index: 75°   Visibility: 10mi
Dew Point: 55°   Wind: 8mph
Humidity: 50%   Direction: 340°NNW
Pressure: 30.08"   Gusts: NA
Location:  31.76°N, 94.08°W
Report Text: KOCH 201755Z AUTO 34007KT 10SM CLR 24/13 A3008 RMK AO1 10240 20090 57014
Loading
Personal Weather Stations






























Interactive Weather Map
Tropical Storm Tracking
New forecast layout! Learn more

10-Day Weather Forecast

Advertisements
Track Severe Weather on mobile